sensor_id;sensor_type;location;lat;lon;timestamp;pressure;altitude;pressure_sealevel;temperature;humidity
27358;BME280;14831;50.474;7.616;2023-03-03T00:00:35;98480;;;1.4;64.7
27358;BME280;14831;50.474;7.616;2023-03-03T00:05:35;98470;;;1.4;64.7
27358;BME280;14831;50.474;7.616;2023-03-03T00:10:35;98480;;;1.2;65.2
27358;BME280;14831;50.474;7.616;2023-03-03T00:15:35;98480;;;0.5;67.0
27358;BME280;14831;50.474;7.616;2023-03-03T00:20:36;98490;;;0.3;68.7
27358;BME280;14831;50.474;7.616;2023-03-03T00:25:35;98500;;;0.2;69.2
27358;BME280;14831;50.474;7.616;2023-03-03T00:30:36;98490;;;0.1;69.2
27358;BME280;14831;50.474;7.616;2023-03-03T00:35:35;98490;;;-0.2;74.9
27358;BME280;14831;50.474;7.616;2023-03-03T00:40:35;98500;;;-0.1;74.2
27358;BME280;14831;50.474;7.616;2023-03-03T00:45:37;98500;;;-0.1;74.3
27358;BME280;14831;50.474;7.616;2023-03-03T00:50:35;98490;;;-0.3;74.6
27358;BME280;14831;50.474;7.616;2023-03-03T00:55:35;98510;;;-0.6;75.4
27358;BME280;14831;50.474;7.616;2023-03-03T01:00:35;98500;;;-0.7;75.9
27358;BME280;14831;50.474;7.616;2023-03-03T01:05:35;98500;;;-0.7;76.2
27358;BME280;14831;50.474;7.616;2023-03-03T01:10:36;98510;;;-0.5;76.7
27358;BME280;14831;50.474;7.616;2023-03-03T01:15:35;98510;;;-0.3;75.1
27358;BME280;14831;50.474;7.616;2023-03-03T01:20:35;98500;;;-0.5;75.4
27358;BME280;14831;50.474;7.616;2023-03-03T01:25:35;98500;;;-0.5;77.2
27358;BME280;14831;50.474;7.616;2023-03-03T01:30:35;98490;;;-0.4;75.5
27358;BME280;14831;50.474;7.616;2023-03-03T01:35:35;98500;;;-0.7;75.8
27358;BME280;14831;50.474;7.616;2023-03-03T01:40:35;98500;;;-0.9;77.0
27358;BME280;14831;50.474;7.616;2023-03-03T01:45:41;98480;;;-1.1;78.3
27358;BME280;14831;50.474;7.616;2023-03-03T01:50:37;98490;;;-1.3;79.2
27358;BME280;14831;50.474;7.616;2023-03-03T01:55:36;98480;;;-1.3;79.0
27358;BME280;14831;50.474;7.616;2023-03-03T02:00:35;98480;;;-1.1;79.5
27358;BME280;14831;50.474;7.616;2023-03-03T02:05:35;98480;;;-0.9;79.6
27358;BME280;14831;50.474;7.616;2023-03-03T02:10:35;98480;;;-0.8;78.6
27358;BME280;14831;50.474;7.616;2023-03-03T02:15:35;98470;;;-0.5;79.1
27358;BME280;14831;50.474;7.616;2023-03-03T02:20:38;98480;;;-0.1;76.6
27358;BME280;14831;50.474;7.616;2023-03-03T02:25:37;98480;;;-0.1;76.0
27358;BME280;14831;50.474;7.616;2023-03-03T02:30:36;98480;;;-0.4;77.7
27358;BME280;14831;50.474;7.616;2023-03-03T02:35:36;98470;;;-0.4;77.4
27358;BME280;14831;50.474;7.616;2023-03-03T02:40:36;98470;;;-0.5;78.0
27358;BME280;14831;50.474;7.616;2023-03-03T02:45:40;98470;;;-0.4;78.0
27358;BME280;14831;50.474;7.616;2023-03-03T02:50:35;98480;;;-0.0;77.6
27358;BME280;14831;50.474;7.616;2023-03-03T02:55:35;98480;;;0.0;73.5
27358;BME280;14831;50.474;7.616;2023-03-03T03:00:35;98480;;;-0.2;77.9
27358;BME280;14831;50.474;7.616;2023-03-03T03:05:35;98480;;;-0.3;77.1
27358;BME280;14831;50.474;7.616;2023-03-03T03:10:35;98480;;;-0.8;78.2
27358;BME280;14831;50.474;7.616;2023-03-03T03:15:35;98480;;;-1.3;80.0
27358;BME280;14831;50.474;7.616;2023-03-03T03:20:35;98480;;;-1.4;82.7
27358;BME280;14831;50.474;7.616;2023-03-03T03:25:35;98490;;;-0.9;83.5
27358;BME280;14831;50.474;7.616;2023-03-03T03:30:35;98480;;;-0.3;80.3
27358;BME280;14831;50.474;7.616;2023-03-03T03:35:35;98500;;;-0.5;80.4
27358;BME280;14831;50.474;7.616;2023-03-03T03:40:35;98500;;;-0.5;80.1
27358;BME280;14831;50.474;7.616;2023-03-03T03:45:35;98490;;;-0.7;81.5
27358;BME280;14831;50.474;7.616;2023-03-03T03:50:35;98500;;;-1.0;80.8
27358;BME280;14831;50.474;7.616;2023-03-03T03:55:35;98500;;;-1.3;82.9
27358;BME280;14831;50.474;7.616;2023-03-03T04:00:35;98500;;;-1.2;83.9
27358;BME280;14831;50.474;7.616;2023-03-03T04:05:35;98490;;;-1.1;84.5
27358;BME280;14831;50.474;7.616;2023-03-03T04:10:35;98500;;;-1.2;85.1
27358;BME280;14831;50.474;7.616;2023-03-03T04:15:35;98500;;;-1.1;85.4
27358;BME280;14831;50.474;7.616;2023-03-03T04:20:35;98510;;;-1.0;85.2
27358;BME280;14831;50.474;7.616;2023-03-03T04:25:35;98500;;;-1.2;84.8
27358;BME280;14831;50.474;7.616;2023-03-03T04:30:35;98500;;;-1.6;85.1
27358;BME280;14831;50.474;7.616;2023-03-03T04:35:35;98510;;;-1.5;88.1
27358;BME280;14831;50.474;7.616;2023-03-03T04:40:35;98510;;;-1.8;87.9
27358;BME280;14831;50.474;7.616;2023-03-03T04:45:35;98510;;;-1.8;88.6
27358;BME280;14831;50.474;7.616;2023-03-03T04:50:35;98510;;;-1.7;88.9
27358;BME280;14831;50.474;7.616;2023-03-03T04:55:35;98520;;;-1.6;88.7
27358;BME280;14831;50.474;7.616;2023-03-03T05:00:35;98520;;;-1.5;88.4
27358;BME280;14831;50.474;7.616;2023-03-03T05:05:35;98500;;;-1.5;88.4
27358;BME280;14831;50.474;7.616;2023-03-03T05:10:35;98510;;;-1.5;89.0
27358;BME280;14831;50.474;7.616;2023-03-03T05:15:35;98520;;;-1.6;89.7
27358;BME280;14831;50.474;7.616;2023-03-03T05:20:35;98500;;;-1.7;88.9
27358;BME280;14831;50.474;7.616;2023-03-03T05:25:35;98500;;;-2.2;88.3
27358;BME280;14831;50.474;7.616;2023-03-03T05:30:35;98500;;;-2.5;88.9
27358;BME280;14831;50.474;7.616;2023-03-03T05:35:35;98500;;;-2.7;90.3
27358;BME280;14831;50.474;7.616;2023-03-03T05:40:35;98510;;;-2.2;92.2
27358;BME280;14831;50.474;7.616;2023-03-03T05:45:35;98510;;;-1.9;91.7
27358;BME280;14831;50.474;7.616;2023-03-03T05:50:35;98520;;;-2.0;91.4
27358;BME280;14831;50.474;7.616;2023-03-03T05:55:35;98520;;;-2.1;91.9
27358;BME280;14831;50.474;7.616;2023-03-03T06:00:35;98520;;;-2.0;92.5
27358;BME280;14831;50.474;7.616;2023-03-03T06:05:35;98530;;;-2.1;92.1
27358;BME280;14831;50.474;7.616;2023-03-03T06:10:35;98540;;;-2.3;92.4
27358;BME280;14831;50.474;7.616;2023-03-03T06:15:35;98540;;;-2.2;93.3
27358;BME280;14831;50.474;7.616;2023-03-03T06:20:35;98540;;;-2.3;93.8
27358;BME280;14831;50.474;7.616;2023-03-03T06:25:35;98540;;;-2.1;94.4
27358;BME280;14831;50.474;7.616;2023-03-03T06:30:35;98550;;;-2.0;94.2
27358;BME280;14831;50.474;7.616;2023-03-03T06:35:35;98550;;;-2.0;94.3
27358;BME280;14831;50.474;7.616;2023-03-03T06:40:35;98560;;;-2.0;94.6
27358;BME280;14831;50.474;7.616;2023-03-03T06:45:35;98560;;;-2.1;94.6
27358;BME280;14831;50.474;7.616;2023-03-03T06:50:35;98570;;;-2.2;94.7
27358;BME280;14831;50.474;7.616;2023-03-03T06:55:35;98580;;;-2.0;94.8
27358;BME280;14831;50.474;7.616;2023-03-03T07:00:35;98580;;;-1.9;94.4
27358;BME280;14831;50.474;7.616;2023-03-03T07:05:35;98600;;;-2.0;94.2
27358;BME280;14831;50.474;7.616;2023-03-03T07:10:35;98610;;;-2.2;94.5
27358;BME280;14831;50.474;7.616;2023-03-03T07:15:35;98620;;;-2.1;93.8
27358;BME280;14831;50.474;7.616;2023-03-03T07:20:35;98630;;;-2.0;94.7
27358;BME280;14831;50.474;7.616;2023-03-03T07:25:35;98620;;;-1.7;93.6
27358;BME280;14831;50.474;7.616;2023-03-03T07:30:35;98650;;;-1.9;93.9
27358;BME280;14831;50.474;7.616;2023-03-03T07:35:35;98650;;;-2.0;94.5
27358;BME280;14831;50.474;7.616;2023-03-03T07:40:36;98660;;;-2.0;94.7
27358;BME280;14831;50.474;7.616;2023-03-03T07:45:35;98660;;;-1.9;94.7
27358;BME280;14831;50.474;7.616;2023-03-03T07:50:35;98660;;;-2.0;95.2
27358;BME280;14831;50.474;7.616;2023-03-03T07:55:36;98660;;;-2.0;95.7
27358;BME280;14831;50.474;7.616;2023-03-03T08:05:35;98690;;;-2.1;96.5
27358;BME280;14831;50.474;7.616;2023-03-03T08:10:35;98690;;;-2.0;97.0
27358;BME280;14831;50.474;7.616;2023-03-03T08:15:35;98700;;;-2.0;97.0
27358;BME280;14831;50.474;7.616;2023-03-03T08:20:41;98700;;;-2.0;97.5
27358;BME280;14831;50.474;7.616;2023-03-03T08:25:35;98720;;;-1.9;97.2
27358;BME280;14831;50.474;7.616;2023-03-03T08:30:35;98700;;;-1.9;97.2
27358;BME280;14831;50.474;7.616;2023-03-03T08:35:35;98710;;;-1.6;97.0
27358;BME280;14831;50.474;7.616;2023-03-03T08:40:35;98710;;;-1.4;95.6
27358;BME280;14831;50.474;7.616;2023-03-03T08:45:35;98710;;;-1.7;96.6
27358;BME280;14831;50.474;7.616;2023-03-03T08:50:37;98720;;;-1.7;96.9
27358;BME280;14831;50.474;7.616;2023-03-03T08:55:35;98730;;;-1.9;97.3
27358;BME280;14831;50.474;7.616;2023-03-03T09:00:35;98720;;;-1.6;97.0
27358;BME280;14831;50.474;7.616;2023-03-03T09:05:39;98730;;;-1.5;96.5
27358;BME280;14831;50.474;7.616;2023-03-03T09:10:35;98740;;;-1.5;96.1
27358;BME280;14831;50.474;7.616;2023-03-03T09:15:36;98740;;;-1.3;96.0
27358;BME280;14831;50.474;7.616;2023-03-03T09:20:35;98740;;;-1.1;96.1
27358;BME280;14831;50.474;7.616;2023-03-03T09:25:35;98760;;;-1.0;94.7
27358;BME280;14831;50.474;7.616;2023-03-03T09:30:36;98740;;;-1.1;94.8
27358;BME280;14831;50.474;7.616;2023-03-03T09:35:36;98750;;;-1.0;94.4
27358;BME280;14831;50.474;7.616;2023-03-03T09:40:40;98750;;;-0.7;94.2
27358;BME280;14831;50.474;7.616;2023-03-03T09:45:38;98770;;;-1.0;95.0
27358;BME280;14831;50.474;7.616;2023-03-03T09:50:35;98780;;;-0.7;93.6
27358;BME280;14831;50.474;7.616;2023-03-03T09:55:37;98760;;;-0.4;92.5
27358;BME280;14831;50.474;7.616;2023-03-03T10:00:38;98770;;;-0.4;92.2
27358;BME280;14831;50.474;7.616;2023-03-03T10:05:38;98770;;;-0.4;91.6
27358;BME280;14831;50.474;7.616;2023-03-03T10:10:39;98780;;;-0.3;91.5
27358;BME280;14831;50.474;7.616;2023-03-03T10:15:36;98780;;;-0.1;90.9
27358;BME280;14831;50.474;7.616;2023-03-03T10:20:37;98790;;;-0.2;90.6
27358;BME280;14831;50.474;7.616;2023-03-03T10:25:37;98800;;;-0.2;91.5
27358;BME280;14831;50.474;7.616;2023-03-03T10:30:38;98800;;;-0.0;90.6
27358;BME280;14831;50.474;7.616;2023-03-03T10:35:38;98820;;;-0.2;92.0
27358;BME280;14831;50.474;7.616;2023-03-03T10:40:36;98820;;;-0.2;89.9
27358;BME280;14831;50.474;7.616;2023-03-03T10:45:39;98830;;;-0.6;92.6
27358;BME280;14831;50.474;7.616;2023-03-03T10:50:37;98830;;;-0.6;93.1
27358;BME280;14831;50.474;7.616;2023-03-03T10:55:35;98830;;;-0.5;91.9
27358;BME280;14831;50.474;7.616;2023-03-03T11:00:36;98830;;;-0.4;92.3
27358;BME280;14831;50.474;7.616;2023-03-03T11:05:36;98830;;;-0.3;91.7
27358;BME280;14831;50.474;7.616;2023-03-03T11:10:39;98830;;;-0.5;92.1
27358;BME280;14831;50.474;7.616;2023-03-03T11:15:38;98850;;;-0.3;91.0
27358;BME280;14831;50.474;7.616;2023-03-03T11:20:37;98830;;;-0.4;91.4
27358;BME280;14831;50.474;7.616;2023-03-03T11:25:36;98820;;;-0.1;89.6
27358;BME280;14831;50.474;7.616;2023-03-03T11:30:46;98810;;;-0.0;90.3
27358;BME280;14831;50.474;7.616;2023-03-03T11:35:37;98810;;;0.1;85.4
27358;BME280;14831;50.474;7.616;2023-03-03T11:40:36;98800;;;0.7;84.4
27358;BME280;14831;50.474;7.616;2023-03-03T11:45:37;98820;;;0.3;84.9
27358;BME280;14831;50.474;7.616;2023-03-03T11:50:37;98820;;;1.1;82.1
27358;BME280;14831;50.474;7.616;2023-03-03T11:55:35;98830;;;0.8;81.8
27358;BME280;14831;50.474;7.616;2023-03-03T12:00:36;98840;;;0.5;82.5
27358;BME280;14831;50.474;7.616;2023-03-03T12:05:38;98780;;;0.7;82.3
27358;BME280;14831;50.474;7.616;2023-03-03T12:10:36;98780;;;1.2;82.5
27358;BME280;14831;50.474;7.616;2023-03-03T12:15:37;98800;;;2.1;80.6
27358;BME280;14831;50.474;7.616;2023-03-03T12:20:37;98790;;;2.0;77.5
27358;BME280;14831;50.474;7.616;2023-03-03T12:25:35;98790;;;2.2;79.9
27358;BME280;14831;50.474;7.616;2023-03-03T12:30:39;98800;;;1.9;80.0
27358;BME280;14831;50.474;7.616;2023-03-03T12:35:35;98800;;;2.1;79.0
27358;BME280;14831;50.474;7.616;2023-03-03T12:40:36;98800;;;2.7;77.4
27358;BME280;14831;50.474;7.616;2023-03-03T12:45:36;98790;;;2.2;77.1
27358;BME280;14831;50.474;7.616;2023-03-03T12:50:37;98800;;;2.8;75.4
27358;BME280;14831;50.474;7.616;2023-03-03T12:55:38;98780;;;2.9;74.1
27358;BME280;14831;50.474;7.616;2023-03-03T13:00:38;98780;;;2.6;74.8
27358;BME280;14831;50.474;7.616;2023-03-03T13:05:39;98800;;;2.5;74.6
27358;BME280;14831;50.474;7.616;2023-03-03T13:10:37;98780;;;2.9;74.0
27358;BME280;14831;50.474;7.616;2023-03-03T13:15:36;98780;;;2.9;74.9
27358;BME280;14831;50.474;7.616;2023-03-03T13:20:37;98780;;;2.9;73.9
27358;BME280;14831;50.474;7.616;2023-03-03T13:25:39;98780;;;3.0;73.3
27358;BME280;14831;50.474;7.616;2023-03-03T13:30:36;98810;;;3.1;74.3
27358;BME280;14831;50.474;7.616;2023-03-03T13:35:37;98820;;;3.0;74.2
27358;BME280;14831;50.474;7.616;2023-03-03T13:40:38;98810;;;3.1;74.1
27358;BME280;14831;50.474;7.616;2023-03-03T13:45:36;98810;;;3.6;72.6
27358;BME280;14831;50.474;7.616;2023-03-03T13:50:42;98800;;;3.5;71.9
27358;BME280;14831;50.474;7.616;2023-03-03T13:55:36;98800;;;3.6;72.2
27358;BME280;14831;50.474;7.616;2023-03-03T14:00:38;98790;;;3.9;71.0
27358;BME280;14831;50.474;7.616;2023-03-03T14:05:36;98800;;;4.0;70.9
27358;BME280;14831;50.474;7.616;2023-03-03T14:10:37;98790;;;3.6;70.9
27358;BME280;14831;50.474;7.616;2023-03-03T14:15:37;98780;;;3.9;70.0
27358;BME280;14831;50.474;7.616;2023-03-03T14:20:37;98780;;;3.7;70.9
27358;BME280;14831;50.474;7.616;2023-03-03T14:25:49;98790;;;3.7;70.9
27358;BME280;14831;50.474;7.616;2023-03-03T14:30:36;98770;;;3.7;71.5
27358;BME280;14831;50.474;7.616;2023-03-03T14:35:36;98770;;;4.0;70.1
27358;BME280;14831;50.474;7.616;2023-03-03T14:40:37;98760;;;3.9;70.9
27358;BME280;14831;50.474;7.616;2023-03-03T14:45:35;98770;;;3.9;70.3
27358;BME280;14831;50.474;7.616;2023-03-03T14:50:36;98760;;;4.0;70.2
27358;BME280;14831;50.474;7.616;2023-03-03T14:55:36;98760;;;3.8;69.8
27358;BME280;14831;50.474;7.616;2023-03-03T15:00:35;98760;;;4.0;69.9
27358;BME280;14831;50.474;7.616;2023-03-03T15:05:35;98760;;;3.7;70.2
27358;BME280;14831;50.474;7.616;2023-03-03T15:10:35;98750;;;3.7;70.4
27358;BME280;14831;50.474;7.616;2023-03-03T15:15:36;98750;;;3.6;70.6
27358;BME280;14831;50.474;7.616;2023-03-03T15:20:36;98750;;;3.5;70.6
27358;BME280;14831;50.474;7.616;2023-03-03T15:25:36;98740;;;3.6;70.6
27358;BME280;14831;50.474;7.616;2023-03-03T15:30:38;98740;;;3.5;70.9
27358;BME280;14831;50.474;7.616;2023-03-03T15:35:38;98730;;;3.5;70.8
27358;BME280;14831;50.474;7.616;2023-03-03T15:40:36;98730;;;3.6;70.7
27358;BME280;14831;50.474;7.616;2023-03-03T15:45:36;98720;;;3.4;71.0
27358;BME280;14831;50.474;7.616;2023-03-03T15:50:38;98710;;;3.5;70.9
27358;BME280;14831;50.474;7.616;2023-03-03T15:55:39;98720;;;3.1;72.0
27358;BME280;14831;50.474;7.616;2023-03-03T16:00:36;98720;;;3.1;72.2
27358;BME280;14831;50.474;7.616;2023-03-03T16:05:37;98730;;;3.1;72.5
27358;BME280;14831;50.474;7.616;2023-03-03T16:10:37;98730;;;3.0;72.8
27358;BME280;14831;50.474;7.616;2023-03-03T16:15:40;98730;;;3.0;72.6
27358;BME280;14831;50.474;7.616;2023-03-03T16:20:39;98730;;;2.9;73.1
27358;BME280;14831;50.474;7.616;2023-03-03T16:25:38;98730;;;2.8;73.5
27358;BME280;14831;50.474;7.616;2023-03-03T16:30:36;98740;;;2.8;73.8
27358;BME280;14831;50.474;7.616;2023-03-03T16:35:36;98740;;;2.7;74.3
27358;BME280;14831;50.474;7.616;2023-03-03T16:40:35;98740;;;2.5;74.7
27358;BME280;14831;50.474;7.616;2023-03-03T16:45:35;98750;;;2.4;74.9
27358;BME280;14831;50.474;7.616;2023-03-03T16:50:37;98750;;;2.3;75.6
27358;BME280;14831;50.474;7.616;2023-03-03T16:55:35;98750;;;2.2;76.1
27358;BME280;14831;50.474;7.616;2023-03-03T17:00:36;98760;;;2.1;76.7
27358;BME280;14831;50.474;7.616;2023-03-03T17:05:38;98760;;;2.0;77.3
27358;BME280;14831;50.474;7.616;2023-03-03T17:10:36;98760;;;1.8;78.2
27358;BME280;14831;50.474;7.616;2023-03-03T17:15:37;98760;;;1.6;79.1
27358;BME280;14831;50.474;7.616;2023-03-03T17:20:36;98770;;;1.4;79.9
27358;BME280;14831;50.474;7.616;2023-03-03T17:25:36;98770;;;1.3;80.5
27358;BME280;14831;50.474;7.616;2023-03-03T17:30:38;98770;;;1.1;81.3
27358;BME280;14831;50.474;7.616;2023-03-03T17:35:39;98760;;;1.0;81.8
27358;BME280;14831;50.474;7.616;2023-03-03T17:40:40;98770;;;0.9;82.4
27358;BME280;14831;50.474;7.616;2023-03-03T17:45:36;98780;;;0.7;82.9
27358;BME280;14831;50.474;7.616;2023-03-03T17:50:38;98780;;;0.6;83.5
27358;BME280;14831;50.474;7.616;2023-03-03T17:55:38;98790;;;0.5;84.0
27358;BME280;14831;50.474;7.616;2023-03-03T18:00:38;98790;;;0.4;84.4
27358;BME280;14831;50.474;7.616;2023-03-03T18:05:38;98780;;;0.2;84.9
27358;BME280;14831;50.474;7.616;2023-03-03T18:10:38;98780;;;0.2;85.4
27358;BME280;14831;50.474;7.616;2023-03-03T18:15:39;98780;;;0.1;85.6
27358;BME280;14831;50.474;7.616;2023-03-03T18:20:40;98800;;;0.0;85.8
27358;BME280;14831;50.474;7.616;2023-03-03T18:25:51;98810;;;-0.1;89.9
27358;BME280;14831;50.474;7.616;2023-03-03T18:30:52;98800;;;-0.0;90.0
27358;BME280;14831;50.474;7.616;2023-03-03T18:35:36;98810;;;-0.1;90.4
27358;BME280;14831;50.474;7.616;2023-03-03T18:40:35;98830;;;-0.1;90.7
27358;BME280;14831;50.474;7.616;2023-03-03T18:45:50;98820;;;-0.3;91.1
27358;BME280;14831;50.474;7.616;2023-03-03T18:50:35;98820;;;-0.3;91.1
27358;BME280;14831;50.474;7.616;2023-03-03T18:55:45;98810;;;-0.3;91.6
27358;BME280;14831;50.474;7.616;2023-03-03T19:00:35;98810;;;-0.4;91.8
27358;BME280;14831;50.474;7.616;2023-03-03T19:05:36;98820;;;-0.4;92.0
27358;BME280;14831;50.474;7.616;2023-03-03T19:10:46;98820;;;-0.6;92.3
27358;BME280;14831;50.474;7.616;2023-03-03T19:15:41;98830;;;-0.6;92.7
27358;BME280;14831;50.474;7.616;2023-03-03T19:20:36;98830;;;-0.6;92.7
27358;BME280;14831;50.474;7.616;2023-03-03T19:25:35;98820;;;-0.7;93.1
27358;BME280;14831;50.474;7.616;2023-03-03T19:30:39;98830;;;-0.7;93.4
27358;BME280;14831;50.474;7.616;2023-03-03T19:35:36;98820;;;-0.7;93.4
27358;BME280;14831;50.474;7.616;2023-03-03T19:40:43;98820;;;-0.8;93.6
27358;BME280;14831;50.474;7.616;2023-03-03T19:45:39;98830;;;-0.8;94.0
27358;BME280;14831;50.474;7.616;2023-03-03T19:50:39;98830;;;-0.9;94.2
27358;BME280;14831;50.474;7.616;2023-03-03T19:55:39;98830;;;-0.9;94.3
27358;BME280;14831;50.474;7.616;2023-03-03T20:00:37;98830;;;-0.9;94.6
27358;BME280;14831;50.474;7.616;2023-03-03T20:05:36;98830;;;-0.9;94.9
27358;BME280;14831;50.474;7.616;2023-03-03T20:10:37;98830;;;-0.9;94.9
27358;BME280;14831;50.474;7.616;2023-03-03T20:15:39;98840;;;-0.9;95.0
27358;BME280;14831;50.474;7.616;2023-03-03T20:20:39;98830;;;-1.0;95.1
27358;BME280;14831;50.474;7.616;2023-03-03T20:25:38;98840;;;-1.0;95.5
27358;BME280;14831;50.474;7.616;2023-03-03T20:30:41;98840;;;-1.1;95.5
27358;BME280;14831;50.474;7.616;2023-03-03T20:35:36;98830;;;-1.2;95.7
27358;BME280;14831;50.474;7.616;2023-03-03T20:40:36;98840;;;-1.4;95.7
27358;BME280;14831;50.474;7.616;2023-03-03T20:45:38;98840;;;-1.5;96.3
27358;BME280;14831;50.474;7.616;2023-03-03T20:50:37;98840;;;-1.6;95.8
27358;BME280;14831;50.474;7.616;2023-03-03T20:55:38;98840;;;-1.8;96.0
27358;BME280;14831;50.474;7.616;2023-03-03T21:00:37;98830;;;-2.0;95.5
27358;BME280;14831;50.474;7.616;2023-03-03T21:05:35;98830;;;-2.1;95.9
27358;BME280;14831;50.474;7.616;2023-03-03T21:10:36;98830;;;-2.3;96.1
27358;BME280;14831;50.474;7.616;2023-03-03T21:15:35;98830;;;-2.4;96.3
27358;BME280;14831;50.474;7.616;2023-03-03T21:20:35;98830;;;-2.3;96.8
27358;BME280;14831;50.474;7.616;2023-03-03T21:25:43;98830;;;-2.2;97.4
27358;BME280;14831;50.474;7.616;2023-03-03T21:30:46;98830;;;-1.9;98.1
27358;BME280;14831;50.474;7.616;2023-03-03T21:35:37;98840;;;-1.8;97.8
27358;BME280;14831;50.474;7.616;2023-03-03T21:40:35;98830;;;-1.6;98.0
27358;BME280;14831;50.474;7.616;2023-03-03T21:45:35;98840;;;-1.5;97.6
27358;BME280;14831;50.474;7.616;2023-03-03T21:50:35;98840;;;-1.5;97.2
27358;BME280;14831;50.474;7.616;2023-03-03T21:55:35;98840;;;-1.6;97.1
27358;BME280;14831;50.474;7.616;2023-03-03T22:00:35;98840;;;-1.9;96.8
27358;BME280;14831;50.474;7.616;2023-03-03T22:05:35;98840;;;-2.0;97.0
27358;BME280;14831;50.474;7.616;2023-03-03T22:10:35;98850;;;-2.1;97.5
27358;BME280;14831;50.474;7.616;2023-03-03T22:15:35;98830;;;-2.3;97.0
27358;BME280;14831;50.474;7.616;2023-03-03T22:20:35;98850;;;-2.4;97.6
27358;BME280;14831;50.474;7.616;2023-03-03T22:25:35;98840;;;-1.9;98.7
27358;BME280;14831;50.474;7.616;2023-03-03T22:30:35;98830;;;-1.7;98.5
27358;BME280;14831;50.474;7.616;2023-03-03T22:35:35;98840;;;-1.4;98.2
27358;BME280;14831;50.474;7.616;2023-03-03T22:40:35;98850;;;-1.3;98.0
27358;BME280;14831;50.474;7.616;2023-03-03T22:45:35;98850;;;-1.3;98.0
27358;BME280;14831;50.474;7.616;2023-03-03T22:50:35;98850;;;-1.3;98.0
27358;BME280;14831;50.474;7.616;2023-03-03T22:55:35;98850;;;-1.2;98.0
27358;BME280;14831;50.474;7.616;2023-03-03T23:00:39;98850;;;-1.2;98.0
27358;BME280;14831;50.474;7.616;2023-03-03T23:05:35;98860;;;-1.2;98.0
27358;BME280;14831;50.474;7.616;2023-03-03T23:10:35;98860;;;-1.2;97.9
27358;BME280;14831;50.474;7.616;2023-03-03T23:15:35;98850;;;-1.3;97.9
27358;BME280;14831;50.474;7.616;2023-03-03T23:20:35;98850;;;-1.3;98.1
27358;BME280;14831;50.474;7.616;2023-03-03T23:25:35;98840;;;-1.2;98.1
27358;BME280;14831;50.474;7.616;2023-03-03T23:30:35;98850;;;-1.2;98.2
27358;BME280;14831;50.474;7.616;2023-03-03T23:35:35;98850;;;-1.1;98.0
27358;BME280;14831;50.474;7.616;2023-03-03T23:40:35;98850;;;-1.1;98.0
27358;BME280;14831;50.474;7.616;2023-03-03T23:45:37;98850;;;-1.0;98.0
27358;BME280;14831;50.474;7.616;2023-03-03T23:50:35;98850;;;-0.9;97.7
27358;BME280;14831;50.474;7.616;2023-03-03T23:55:35;98860;;;-0.8;97.5
